sensor_id;sensor_type;location;lat;lon;timestamp;P1;durP1;ratioP1;P2;durP2;ratioP2
68944;SDS011;55984;48.790;8.990;2023-08-20T00:01:06;11.50;;;6.43;;
68944;SDS011;55984;48.790;8.990;2023-08-20T00:03:33;11.53;;;6.63;;
68944;SDS011;55984;48.790;8.990;2023-08-20T00:05:59;13.27;;;6.40;;
68944;SDS011;55984;48.790;8.990;2023-08-20T00:08:25;10.83;;;6.40;;
68944;SDS011;55984;48.790;8.990;2023-08-20T00:10:51;15.97;;;7.50;;
68944;SDS011;55984;48.790;8.990;2023-08-20T00:13:17;9.97;;;5.57;;
68944;SDS011;55984;48.790;8.990;2023-08-20T00:15:43;11.83;;;5.97;;
68944;SDS011;55984;48.790;8.990;2023-08-20T00:18:11;11.00;;;6.17;;
68944;SDS011;55984;48.790;8.990;2023-08-20T00:20:40;12.80;;;6.20;;
68944;SDS011;55984;48.790;8.990;2023-08-20T00:23:06;10.90;;;5.60;;
68944;SDS011;55984;48.790;8.990;2023-08-20T00:25:33;14.43;;;6.30;;
68944;SDS011;55984;48.790;8.990;2023-08-20T00:27:59;11.10;;;6.00;;
68944;SDS011;55984;48.790;8.990;2023-08-20T00:30:25;13.60;;;6.63;;
68944;SDS011;55984;48.790;8.990;2023-08-20T00:32:51;14.27;;;7.00;;
68944;SDS011;55984;48.790;8.990;2023-08-20T00:35:20;10.30;;;6.30;;
68944;SDS011;55984;48.790;8.990;2023-08-20T00:37:47;11.20;;;5.97;;
68944;SDS011;55984;48.790;8.990;2023-08-20T00:40:16;13.40;;;6.83;;
68944;SDS011;55984;48.790;8.990;2023-08-20T00:42:42;11.40;;;6.30;;
68944;SDS011;55984;48.790;8.990;2023-08-20T00:45:07;13.10;;;6.60;;
68944;SDS011;55984;48.790;8.990;2023-08-20T00:47:34;11.10;;;5.80;;
68944;SDS011;55984;48.790;8.990;2023-08-20T00:50:01;12.53;;;6.37;;
68944;SDS011;55984;48.790;8.990;2023-08-20T00:52:34;12.90;;;6.50;;
68944;SDS011;55984;48.790;8.990;2023-08-20T00:55:02;13.73;;;5.53;;
68944;SDS011;55984;48.790;8.990;2023-08-20T00:57:35;12.60;;;6.93;;
68944;SDS011;55984;48.790;8.990;2023-08-20T01:00:02;11.70;;;6.53;;
68944;SDS011;55984;48.790;8.990;2023-08-20T01:02:32;14.07;;;6.37;;
68944;SDS011;55984;48.790;8.990;2023-08-20T01:04:59;14.27;;;6.30;;
68944;SDS011;55984;48.790;8.990;2023-08-20T01:13:00;11.97;;;6.43;;
68944;SDS011;55984;48.790;8.990;2023-08-20T01:15:27;14.47;;;7.20;;
68944;SDS011;55984;48.790;8.990;2023-08-20T01:17:55;11.00;;;6.47;;
68944;SDS011;55984;48.790;8.990;2023-08-20T01:20:22;12.67;;;6.47;;
68944;SDS011;55984;48.790;8.990;2023-08-20T01:30:55;11.13;;;6.53;;
68944;SDS011;55984;48.790;8.990;2023-08-20T01:33:22;13.40;;;6.27;;
68944;SDS011;55984;48.790;8.990;2023-08-20T01:35:49;12.77;;;6.53;;
68944;SDS011;55984;48.790;8.990;2023-08-20T01:38:15;15.80;;;6.50;;
68944;SDS011;55984;48.790;8.990;2023-08-20T01:40:41;13.10;;;5.73;;
68944;SDS011;55984;48.790;8.990;2023-08-20T01:43:07;14.07;;;6.70;;
68944;SDS011;55984;48.790;8.990;2023-08-20T01:45:33;12.40;;;6.63;;
68944;SDS011;55984;48.790;8.990;2023-08-20T01:47:59;14.03;;;6.20;;
68944;SDS011;55984;48.790;8.990;2023-08-20T01:50:25;14.43;;;6.77;;
68944;SDS011;55984;48.790;8.990;2023-08-20T01:52:51;15.17;;;5.53;;
68944;SDS011;55984;48.790;8.990;2023-08-20T01:55:17;12.60;;;6.07;;
68944;SDS011;55984;48.790;8.990;2023-08-20T01:57:43;10.93;;;5.63;;
68944;SDS011;55984;48.790;8.990;2023-08-20T02:00:09;12.63;;;6.07;;
68944;SDS011;55984;48.790;8.990;2023-08-20T02:02:35;10.30;;;5.70;;
68944;SDS011;55984;48.790;8.990;2023-08-20T02:05:01;12.57;;;6.50;;
68944;SDS011;55984;48.790;8.990;2023-08-20T02:07:28;11.17;;;5.83;;
68944;SDS011;55984;48.790;8.990;2023-08-20T02:09:53;10.97;;;5.87;;
68944;SDS011;55984;48.790;8.990;2023-08-20T02:12:19;11.77;;;6.07;;
68944;SDS011;55984;48.790;8.990;2023-08-20T02:14:45;11.00;;;6.20;;
68944;SDS011;55984;48.790;8.990;2023-08-20T02:17:11;10.60;;;5.80;;
68944;SDS011;55984;48.790;8.990;2023-08-20T02:19:37;12.93;;;5.30;;
68944;SDS011;55984;48.790;8.990;2023-08-20T02:22:04;11.10;;;6.07;;
68944;SDS011;55984;48.790;8.990;2023-08-20T02:24:30;10.57;;;5.10;;
68944;SDS011;55984;48.790;8.990;2023-08-20T02:26:56;9.43;;;5.27;;
68944;SDS011;55984;48.790;8.990;2023-08-20T02:29:22;11.53;;;5.03;;
68944;SDS011;55984;48.790;8.990;2023-08-20T02:31:48;10.00;;;5.20;;
68944;SDS011;55984;48.790;8.990;2023-08-20T02:34:14;9.90;;;5.70;;
68944;SDS011;55984;48.790;8.990;2023-08-20T02:36:40;11.87;;;6.07;;
68944;SDS011;55984;48.790;8.990;2023-08-20T02:39:05;11.03;;;5.53;;
68944;SDS011;55984;48.790;8.990;2023-08-20T02:41:33;10.93;;;5.30;;
68944;SDS011;55984;48.790;8.990;2023-08-20T02:43:59;9.33;;;5.10;;
68944;SDS011;55984;48.790;8.990;2023-08-20T02:46:26;11.37;;;5.63;;
68944;SDS011;55984;48.790;8.990;2023-08-20T02:48:51;15.77;;;6.80;;
68944;SDS011;55984;48.790;8.990;2023-08-20T02:51:17;9.70;;;5.40;;
68944;SDS011;55984;48.790;8.990;2023-08-20T02:53:43;15.07;;;6.27;;
68944;SDS011;55984;48.790;8.990;2023-08-20T02:56:09;12.40;;;6.10;;
68944;SDS011;55984;48.790;8.990;2023-08-20T02:58:35;13.83;;;6.03;;
68944;SDS011;55984;48.790;8.990;2023-08-20T03:01:01;13.73;;;5.90;;
68944;SDS011;55984;48.790;8.990;2023-08-20T03:03:27;10.57;;;5.30;;
68944;SDS011;55984;48.790;8.990;2023-08-20T03:05:53;11.37;;;6.10;;
68944;SDS011;55984;48.790;8.990;2023-08-20T03:08:19;10.77;;;5.30;;
68944;SDS011;55984;48.790;8.990;2023-08-20T03:10:45;12.57;;;6.03;;
68944;SDS011;55984;48.790;8.990;2023-08-20T03:13:11;10.87;;;5.90;;
68944;SDS011;55984;48.790;8.990;2023-08-20T03:15:37;9.53;;;5.47;;
68944;SDS011;55984;48.790;8.990;2023-08-20T03:18:03;10.03;;;5.37;;
68944;SDS011;55984;48.790;8.990;2023-08-20T03:20:29;10.93;;;5.13;;
68944;SDS011;55984;48.790;8.990;2023-08-20T03:22:59;13.50;;;6.27;;
68944;SDS011;55984;48.790;8.990;2023-08-20T03:25:25;12.20;;;5.87;;
68944;SDS011;55984;48.790;8.990;2023-08-20T03:27:51;12.83;;;5.80;;
68944;SDS011;55984;48.790;8.990;2023-08-20T03:30:18;11.03;;;6.27;;
68944;SDS011;55984;48.790;8.990;2023-08-20T03:32:44;10.27;;;5.60;;
68944;SDS011;55984;48.790;8.990;2023-08-20T03:35:10;10.57;;;5.83;;
68944;SDS011;55984;48.790;8.990;2023-08-20T03:37:36;14.77;;;6.00;;
68944;SDS011;55984;48.790;8.990;2023-08-20T03:40:02;11.47;;;6.10;;
68944;SDS011;55984;48.790;8.990;2023-08-20T03:42:31;14.07;;;5.90;;
68944;SDS011;55984;48.790;8.990;2023-08-20T03:44:56;10.80;;;5.57;;
68944;SDS011;55984;48.790;8.990;2023-08-20T03:47:22;11.50;;;5.77;;
68944;SDS011;55984;48.790;8.990;2023-08-20T03:49:48;12.13;;;5.83;;
68944;SDS011;55984;48.790;8.990;2023-08-20T03:52:14;9.80;;;5.40;;
68944;SDS011;55984;48.790;8.990;2023-08-20T03:54:40;10.50;;;5.70;;
68944;SDS011;55984;48.790;8.990;2023-08-20T03:57:06;10.13;;;5.37;;
68944;SDS011;55984;48.790;8.990;2023-08-20T03:59:32;8.77;;;5.90;;
68944;SDS011;55984;48.790;8.990;2023-08-20T04:01:58;14.37;;;6.87;;
68944;SDS011;55984;48.790;8.990;2023-08-20T04:04:24;11.47;;;5.83;;
68944;SDS011;55984;48.790;8.990;2023-08-20T04:06:51;11.73;;;6.20;;
68944;SDS011;55984;48.790;8.990;2023-08-20T04:09:17;13.30;;;6.40;;
68944;SDS011;55984;48.790;8.990;2023-08-20T04:11:43;10.60;;;5.63;;
68944;SDS011;55984;48.790;8.990;2023-08-20T04:14:09;10.03;;;5.50;;
68944;SDS011;55984;48.790;8.990;2023-08-20T04:16:35;17.57;;;7.07;;
68944;SDS011;55984;48.790;8.990;2023-08-20T04:19:00;10.50;;;5.13;;
68944;SDS011;55984;48.790;8.990;2023-08-20T04:21:26;16.97;;;6.30;;
68944;SDS011;55984;48.790;8.990;2023-08-20T04:23:52;10.60;;;6.07;;
68944;SDS011;55984;48.790;8.990;2023-08-20T04:26:18;10.20;;;5.23;;
68944;SDS011;55984;48.790;8.990;2023-08-20T04:28:44;21.57;;;6.80;;
68944;SDS011;55984;48.790;8.990;2023-08-20T04:31:10;10.50;;;6.23;;
68944;SDS011;55984;48.790;8.990;2023-08-20T04:33:36;12.10;;;6.07;;
68944;SDS011;55984;48.790;8.990;2023-08-20T04:36:02;14.10;;;6.63;;
68944;SDS011;55984;48.790;8.990;2023-08-20T04:38:28;15.53;;;6.10;;
68944;SDS011;55984;48.790;8.990;2023-08-20T04:40:54;12.63;;;5.63;;
68944;SDS011;55984;48.790;8.990;2023-08-20T04:43:19;13.47;;;6.43;;
68944;SDS011;55984;48.790;8.990;2023-08-20T04:45:45;10.10;;;5.70;;
68944;SDS011;55984;48.790;8.990;2023-08-20T04:48:11;10.90;;;5.47;;
68944;SDS011;55984;48.790;8.990;2023-08-20T04:50:37;10.97;;;4.93;;
68944;SDS011;55984;48.790;8.990;2023-08-20T04:53:03;12.03;;;5.30;;
68944;SDS011;55984;48.790;8.990;2023-08-20T04:55:29;10.77;;;5.63;;
68944;SDS011;55984;48.790;8.990;2023-08-20T04:57:55;11.13;;;5.73;;
68944;SDS011;55984;48.790;8.990;2023-08-20T05:00:21;16.23;;;6.53;;
68944;SDS011;55984;48.790;8.990;2023-08-20T05:02:48;12.77;;;6.90;;
68944;SDS011;55984;48.790;8.990;2023-08-20T05:05:14;12.70;;;6.27;;
68944;SDS011;55984;48.790;8.990;2023-08-20T05:07:40;16.27;;;6.67;;
68944;SDS011;55984;48.790;8.990;2023-08-20T05:10:06;15.37;;;7.97;;
68944;SDS011;55984;48.790;8.990;2023-08-20T05:12:33;11.70;;;6.50;;
68944;SDS011;55984;48.790;8.990;2023-08-20T05:14:59;15.67;;;6.17;;
68944;SDS011;55984;48.790;8.990;2023-08-20T05:17:25;16.37;;;7.13;;
68944;SDS011;55984;48.790;8.990;2023-08-20T05:19:51;14.80;;;7.17;;
68944;SDS011;55984;48.790;8.990;2023-08-20T05:22:17;14.77;;;6.27;;
68944;SDS011;55984;48.790;8.990;2023-08-20T05:24:44;13.07;;;6.53;;
68944;SDS011;55984;48.790;8.990;2023-08-20T05:27:12;15.03;;;6.83;;
68944;SDS011;55984;48.790;8.990;2023-08-20T05:29:42;15.90;;;7.37;;
68944;SDS011;55984;48.790;8.990;2023-08-20T05:32:08;15.80;;;6.70;;
68944;SDS011;55984;48.790;8.990;2023-08-20T05:34:34;18.77;;;8.20;;
68944;SDS011;55984;48.790;8.990;2023-08-20T05:37:00;17.20;;;8.40;;
68944;SDS011;55984;48.790;8.990;2023-08-20T05:39:26;17.53;;;8.20;;
68944;SDS011;55984;48.790;8.990;2023-08-20T05:41:53;21.77;;;8.87;;
68944;SDS011;55984;48.790;8.990;2023-08-20T05:44:20;18.93;;;9.27;;
68944;SDS011;55984;48.790;8.990;2023-08-20T05:46:47;21.20;;;9.03;;
68944;SDS011;55984;48.790;8.990;2023-08-20T05:49:16;20.47;;;10.20;;
68944;SDS011;55984;48.790;8.990;2023-08-20T05:51:45;25.80;;;10.83;;
68944;SDS011;55984;48.790;8.990;2023-08-20T05:54:10;20.73;;;10.83;;
68944;SDS011;55984;48.790;8.990;2023-08-20T05:56:37;18.10;;;9.93;;
68944;SDS011;55984;48.790;8.990;2023-08-20T05:59:03;18.67;;;9.37;;
68944;SDS011;55984;48.790;8.990;2023-08-20T06:01:29;15.50;;;8.10;;
68944;SDS011;55984;48.790;8.990;2023-08-20T06:03:55;10.37;;;6.63;;
68944;SDS011;55984;48.790;8.990;2023-08-20T06:06:21;10.40;;;5.90;;
68944;SDS011;55984;48.790;8.990;2023-08-20T06:08:47;9.53;;;5.97;;
68944;SDS011;55984;48.790;8.990;2023-08-20T06:11:13;10.73;;;6.23;;
68944;SDS011;55984;48.790;8.990;2023-08-20T06:13:39;9.47;;;5.67;;
68944;SDS011;55984;48.790;8.990;2023-08-20T06:16:06;11.00;;;5.73;;
68944;SDS011;55984;48.790;8.990;2023-08-20T06:18:33;10.60;;;6.37;;
68944;SDS011;55984;48.790;8.990;2023-08-20T06:20:59;9.80;;;5.10;;
68944;SDS011;55984;48.790;8.990;2023-08-20T06:23:25;9.23;;;5.73;;
68944;SDS011;55984;48.790;8.990;2023-08-20T06:25:51;10.50;;;5.83;;
68944;SDS011;55984;48.790;8.990;2023-08-20T06:28:17;9.03;;;5.70;;
68944;SDS011;55984;48.790;8.990;2023-08-20T06:30:46;10.67;;;6.00;;
68944;SDS011;55984;48.790;8.990;2023-08-20T06:33:15;14.20;;;5.60;;
68944;SDS011;55984;48.790;8.990;2023-08-20T06:35:42;10.90;;;5.60;;
68944;SDS011;55984;48.790;8.990;2023-08-20T06:38:08;9.20;;;5.60;;
68944;SDS011;55984;48.790;8.990;2023-08-20T06:40:33;7.97;;;5.07;;
68944;SDS011;55984;48.790;8.990;2023-08-20T06:42:59;11.50;;;5.83;;
68944;SDS011;55984;48.790;8.990;2023-08-20T06:45:25;10.93;;;6.57;;
68944;SDS011;55984;48.790;8.990;2023-08-20T06:47:51;11.17;;;5.77;;
68944;SDS011;55984;48.790;8.990;2023-08-20T06:50:17;9.53;;;5.67;;
68944;SDS011;55984;48.790;8.990;2023-08-20T06:52:43;10.37;;;5.63;;
68944;SDS011;55984;48.790;8.990;2023-08-20T06:55:10;9.27;;;5.63;;
68944;SDS011;55984;48.790;8.990;2023-08-20T06:57:36;10.30;;;6.07;;
68944;SDS011;55984;48.790;8.990;2023-08-20T07:00:04;9.23;;;5.90;;
68944;SDS011;55984;48.790;8.990;2023-08-20T07:02:30;9.47;;;5.13;;
68944;SDS011;55984;48.790;8.990;2023-08-20T07:04:56;12.50;;;6.20;;
68944;SDS011;55984;48.790;8.990;2023-08-20T07:07:22;7.93;;;5.20;;
68944;SDS011;55984;48.790;8.990;2023-08-20T07:09:48;8.43;;;5.50;;
68944;SDS011;55984;48.790;8.990;2023-08-20T07:12:14;9.10;;;5.67;;
68944;SDS011;55984;48.790;8.990;2023-08-20T07:14:41;8.63;;;5.73;;
68944;SDS011;55984;48.790;8.990;2023-08-20T07:17:08;8.43;;;5.30;;
68944;SDS011;55984;48.790;8.990;2023-08-20T07:19:36;12.50;;;5.80;;
68944;SDS011;55984;48.790;8.990;2023-08-20T07:22:02;9.13;;;5.43;;
68944;SDS011;55984;48.790;8.990;2023-08-20T07:24:29;9.10;;;5.87;;
68944;SDS011;55984;48.790;8.990;2023-08-20T07:27:00;9.30;;;5.80;;
68944;SDS011;55984;48.790;8.990;2023-08-20T07:29:28;9.73;;;6.57;;
68944;SDS011;55984;48.790;8.990;2023-08-20T07:31:57;8.13;;;5.33;;
68944;SDS011;55984;48.790;8.990;2023-08-20T07:34:23;9.67;;;6.00;;
68944;SDS011;55984;48.790;8.990;2023-08-20T07:36:49;12.73;;;6.83;;
68944;SDS011;55984;48.790;8.990;2023-08-20T07:39:15;13.10;;;6.50;;
68944;SDS011;55984;48.790;8.990;2023-08-20T07:41:41;13.27;;;6.90;;
68944;SDS011;55984;48.790;8.990;2023-08-20T07:44:07;9.40;;;5.80;;
68944;SDS011;55984;48.790;8.990;2023-08-20T07:46:33;12.47;;;6.43;;
68944;SDS011;55984;48.790;8.990;2023-08-20T07:48:59;9.50;;;5.90;;
68944;SDS011;55984;48.790;8.990;2023-08-20T07:51:25;7.90;;;5.50;;
68944;SDS011;55984;48.790;8.990;2023-08-20T07:53:57;12.20;;;6.40;;
68944;SDS011;55984;48.790;8.990;2023-08-20T07:56:24;10.63;;;6.20;;
68944;SDS011;55984;48.790;8.990;2023-08-20T07:58:55;9.47;;;6.03;;
68944;SDS011;55984;48.790;8.990;2023-08-20T08:01:20;9.20;;;5.40;;
68944;SDS011;55984;48.790;8.990;2023-08-20T08:03:52;9.63;;;6.50;;
68944;SDS011;55984;48.790;8.990;2023-08-20T08:06:18;8.07;;;6.10;;
68944;SDS011;55984;48.790;8.990;2023-08-20T08:08:46;8.73;;;5.90;;
68944;SDS011;55984;48.790;8.990;2023-08-20T08:11:14;9.90;;;6.23;;
68944;SDS011;55984;48.790;8.990;2023-08-20T08:13:40;10.63;;;6.40;;
68944;SDS011;55984;48.790;8.990;2023-08-20T08:16:06;8.80;;;6.17;;
68944;SDS011;55984;48.790;8.990;2023-08-20T08:18:32;9.60;;;6.17;;
68944;SDS011;55984;48.790;8.990;2023-08-20T08:20:58;9.03;;;6.27;;
68944;SDS011;55984;48.790;8.990;2023-08-20T08:23:24;10.90;;;6.47;;
68944;SDS011;55984;48.790;8.990;2023-08-20T08:25:51;9.57;;;5.87;;
68944;SDS011;55984;48.790;8.990;2023-08-20T08:28:17;8.93;;;5.90;;
68944;SDS011;55984;48.790;8.990;2023-08-20T08:30:44;8.10;;;5.53;;
68944;SDS011;55984;48.790;8.990;2023-08-20T08:33:10;10.40;;;6.20;;
68944;SDS011;55984;48.790;8.990;2023-08-20T08:35:38;9.17;;;6.13;;
68944;SDS011;55984;48.790;8.990;2023-08-20T08:38:04;7.47;;;5.73;;
68944;SDS011;55984;48.790;8.990;2023-08-20T08:40:30;8.17;;;5.63;;
68944;SDS011;55984;48.790;8.990;2023-08-20T08:42:56;10.13;;;6.70;;
68944;SDS011;55984;48.790;8.990;2023-08-20T08:45:23;10.80;;;6.60;;
68944;SDS011;55984;48.790;8.990;2023-08-20T08:47:50;12.07;;;6.37;;
68944;SDS011;55984;48.790;8.990;2023-08-20T08:50:16;8.33;;;5.77;;
68944;SDS011;55984;48.790;8.990;2023-08-20T08:52:43;8.63;;;6.20;;
68944;SDS011;55984;48.790;8.990;2023-08-20T08:55:10;8.47;;;5.70;;
68944;SDS011;55984;48.790;8.990;2023-08-20T08:57:36;8.30;;;5.47;;
68944;SDS011;55984;48.790;8.990;2023-08-20T09:00:03;9.60;;;6.33;;
68944;SDS011;55984;48.790;8.990;2023-08-20T09:02:30;9.47;;;6.13;;
68944;SDS011;55984;48.790;8.990;2023-08-20T09:04:56;9.50;;;5.90;;
68944;SDS011;55984;48.790;8.990;2023-08-20T09:07:24;10.20;;;6.10;;
68944;SDS011;55984;48.790;8.990;2023-08-20T09:09:50;8.60;;;5.67;;
68944;SDS011;55984;48.790;8.990;2023-08-20T09:12:16;8.10;;;5.57;;
68944;SDS011;55984;48.790;8.990;2023-08-20T09:14:50;9.47;;;5.77;;
68944;SDS011;55984;48.790;8.990;2023-08-20T09:17:21;8.00;;;5.20;;
68944;SDS011;55984;48.790;8.990;2023-08-20T09:19:55;9.40;;;5.37;;
68944;SDS011;55984;48.790;8.990;2023-08-20T09:22:28;9.20;;;5.50;;
68944;SDS011;55984;48.790;8.990;2023-08-20T09:24:57;7.50;;;5.13;;
68944;SDS011;55984;48.790;8.990;2023-08-20T09:27:24;7.30;;;5.10;;
68944;SDS011;55984;48.790;8.990;2023-08-20T09:33:22;8.43;;;5.60;;
68944;SDS011;55984;48.790;8.990;2023-08-20T09:35:49;8.43;;;5.70;;
68944;SDS011;55984;48.790;8.990;2023-08-20T09:38:36;7.43;;;5.37;;
68944;SDS011;55984;48.790;8.990;2023-08-20T09:41:06;7.27;;;5.20;;
68944;SDS011;55984;48.790;8.990;2023-08-20T09:43:37;7.33;;;5.30;;
68944;SDS011;55984;48.790;8.990;2023-08-20T09:46:07;9.03;;;5.50;;
68944;SDS011;55984;48.790;8.990;2023-08-20T09:51:29;8.53;;;5.43;;
68944;SDS011;55984;48.790;8.990;2023-08-20T10:00:04;8.03;;;5.13;;
68944;SDS011;55984;48.790;8.990;2023-08-20T10:02:41;14.60;;;6.80;;
68944;SDS011;55984;48.790;8.990;2023-08-20T10:05:08;7.33;;;5.03;;
68944;SDS011;55984;48.790;8.990;2023-08-20T10:07:39;7.90;;;5.07;;
68944;SDS011;55984;48.790;8.990;2023-08-20T10:10:06;7.73;;;5.07;;
68944;SDS011;55984;48.790;8.990;2023-08-20T10:12:33;6.17;;;4.30;;
68944;SDS011;55984;48.790;8.990;2023-08-20T10:15:00;6.90;;;4.40;;
68944;SDS011;55984;48.790;8.990;2023-08-20T10:17:30;6.73;;;4.80;;
68944;SDS011;55984;48.790;8.990;2023-08-20T10:19:58;10.97;;;4.60;;
68944;SDS011;55984;48.790;8.990;2023-08-20T10:22:37;6.97;;;4.80;;
68944;SDS011;55984;48.790;8.990;2023-08-20T10:25:08;7.70;;;4.80;;
68944;SDS011;55984;48.790;8.990;2023-08-20T10:27:36;7.47;;;5.10;;
68944;SDS011;55984;48.790;8.990;2023-08-20T10:30:11;6.90;;;4.87;;
68944;SDS011;55984;48.790;8.990;2023-08-20T10:35:15;7.83;;;5.00;;
68944;SDS011;55984;48.790;8.990;2023-08-20T10:43:23;15.10;;;6.43;;
68944;SDS011;55984;48.790;8.990;2023-08-20T10:46:02;6.70;;;4.80;;
68944;SDS011;55984;48.790;8.990;2023-08-20T10:48:45;5.43;;;4.10;;
68944;SDS011;55984;48.790;8.990;2023-08-20T10:51:17;7.10;;;4.63;;
68944;SDS011;55984;48.790;8.990;2023-08-20T10:54:01;5.63;;;4.27;;
68944;SDS011;55984;48.790;8.990;2023-08-20T10:56:42;7.23;;;4.90;;
68944;SDS011;55984;48.790;8.990;2023-08-20T11:01:46;6.50;;;4.73;;
68944;SDS011;55984;48.790;8.990;2023-08-20T11:04:14;10.63;;;4.90;;
68944;SDS011;55984;48.790;8.990;2023-08-20T11:06:42;6.53;;;4.47;;
68944;SDS011;55984;48.790;8.990;2023-08-20T11:09:08;6.33;;;4.07;;
68944;SDS011;55984;48.790;8.990;2023-08-20T11:11:35;6.37;;;4.70;;
68944;SDS011;55984;48.790;8.990;2023-08-20T11:14:07;6.03;;;4.43;;
68944;SDS011;55984;48.790;8.990;2023-08-20T11:16:37;6.17;;;4.47;;
68944;SDS011;55984;48.790;8.990;2023-08-20T11:19:03;6.17;;;4.47;;
68944;SDS011;55984;48.790;8.990;2023-08-20T11:21:34;37.27;;;9.40;;
68944;SDS011;55984;48.790;8.990;2023-08-20T11:24:00;8.33;;;4.77;;
68944;SDS011;55984;48.790;8.990;2023-08-20T11:26:27;6.23;;;4.77;;
68944;SDS011;55984;48.790;8.990;2023-08-20T11:28:53;7.70;;;5.03;;
68944;SDS011;55984;48.790;8.990;2023-08-20T11:31:19;6.70;;;4.30;;
68944;SDS011;55984;48.790;8.990;2023-08-20T11:33:45;7.27;;;4.60;;
68944;SDS011;55984;48.790;8.990;2023-08-20T11:36:12;7.57;;;4.70;;
68944;SDS011;55984;48.790;8.990;2023-08-20T11:38:41;7.10;;;4.97;;
68944;SDS011;55984;48.790;8.990;2023-08-20T11:41:08;7.43;;;4.60;;
68944;SDS011;55984;48.790;8.990;2023-08-20T11:43:33;6.03;;;4.67;;
68944;SDS011;55984;48.790;8.990;2023-08-20T11:45:59;5.30;;;4.20;;
68944;SDS011;55984;48.790;8.990;2023-08-20T11:48:25;5.83;;;4.30;;
68944;SDS011;55984;48.790;8.990;2023-08-20T11:50:51;5.43;;;4.00;;
68944;SDS011;55984;48.790;8.990;2023-08-20T11:53:23;6.30;;;4.87;;
68944;SDS011;55984;48.790;8.990;2023-08-20T11:55:49;7.10;;;4.37;;
68944;SDS011;55984;48.790;8.990;2023-08-20T11:58:15;6.73;;;4.47;;
68944;SDS011;55984;48.790;8.990;2023-08-20T12:00:41;6.20;;;4.80;;
68944;SDS011;55984;48.790;8.990;2023-08-20T12:03:08;7.17;;;4.43;;
68944;SDS011;55984;48.790;8.990;2023-08-20T12:05:35;8.27;;;5.10;;
68944;SDS011;55984;48.790;8.990;2023-08-20T12:08:02;8.40;;;4.70;;
68944;SDS011;55984;48.790;8.990;2023-08-20T12:10:30;19.17;;;5.97;;
68944;SDS011;55984;48.790;8.990;2023-08-20T12:12:58;5.97;;;4.30;;
68944;SDS011;55984;48.790;8.990;2023-08-20T12:15:24;5.30;;;4.30;;
68944;SDS011;55984;48.790;8.990;2023-08-20T12:18:03;7.70;;;4.90;;
68944;SDS011;55984;48.790;8.990;2023-08-20T12:20:30;6.67;;;4.73;;
68944;SDS011;55984;48.790;8.990;2023-08-20T12:23:01;8.33;;;4.93;;
68944;SDS011;55984;48.790;8.990;2023-08-20T12:25:30;5.97;;;4.50;;
68944;SDS011;55984;48.790;8.990;2023-08-20T12:27:58;6.50;;;4.50;;
68944;SDS011;55984;48.790;8.990;2023-08-20T12:30:24;5.73;;;4.23;;
68944;SDS011;55984;48.790;8.990;2023-08-20T12:32:50;7.50;;;4.40;;
68944;SDS011;55984;48.790;8.990;2023-08-20T12:35:16;7.40;;;4.13;;
68944;SDS011;55984;48.790;8.990;2023-08-20T12:37:42;5.90;;;4.33;;
68944;SDS011;55984;48.790;8.990;2023-08-20T12:40:08;6.80;;;4.27;;
68944;SDS011;55984;48.790;8.990;2023-08-20T12:42:36;5.80;;;4.20;;
68944;SDS011;55984;48.790;8.990;2023-08-20T12:45:04;5.40;;;3.80;;
68944;SDS011;55984;48.790;8.990;2023-08-20T12:47:32;6.90;;;4.60;;
68944;SDS011;55984;48.790;8.990;2023-08-20T12:49:58;6.80;;;4.30;;
68944;SDS011;55984;48.790;8.990;2023-08-20T12:52:24;5.57;;;4.10;;
68944;SDS011;55984;48.790;8.990;2023-08-20T12:54:50;6.50;;;4.77;;
68944;SDS011;55984;48.790;8.990;2023-08-20T12:57:16;5.40;;;4.07;;
68944;SDS011;55984;48.790;8.990;2023-08-20T12:59:41;5.90;;;4.40;;
68944;SDS011;55984;48.790;8.990;2023-08-20T13:02:07;6.20;;;4.03;;
68944;SDS011;55984;48.790;8.990;2023-08-20T13:04:34;5.80;;;4.20;;
68944;SDS011;55984;48.790;8.990;2023-08-20T13:07:00;5.60;;;4.10;;
68944;SDS011;55984;48.790;8.990;2023-08-20T13:09:26;5.37;;;4.20;;
68944;SDS011;55984;48.790;8.990;2023-08-20T13:11:53;6.10;;;4.30;;
68944;SDS011;55984;48.790;8.990;2023-08-20T13:14:21;6.38;;;4.78;;
68944;SDS011;55984;48.790;8.990;2023-08-20T13:16:48;4.72;;;3.75;;
68944;SDS011;55984;48.790;8.990;2023-08-20T13:19:19;6.03;;;4.10;;
68944;SDS011;55984;48.790;8.990;2023-08-20T13:21:45;6.47;;;4.43;;
68944;SDS011;55984;48.790;8.990;2023-08-20T13:24:11;6.60;;;4.57;;
68944;SDS011;55984;48.790;8.990;2023-08-20T13:26:38;5.63;;;4.53;;
68944;SDS011;55984;48.790;8.990;2023-08-20T13:29:10;6.70;;;4.60;;
68944;SDS011;55984;48.790;8.990;2023-08-20T13:31:36;6.27;;;4.37;;
68944;SDS011;55984;48.790;8.990;2023-08-20T13:34:02;5.30;;;4.10;;
68944;SDS011;55984;48.790;8.990;2023-08-20T13:36:28;6.83;;;4.10;;
68944;SDS011;55984;48.790;8.990;2023-08-20T13:38:55;6.40;;;4.50;;
68944;SDS011;55984;48.790;8.990;2023-08-20T13:41:21;8.17;;;3.77;;
68944;SDS011;55984;48.790;8.990;2023-08-20T13:43:46;11.47;;;4.50;;
68944;SDS011;55984;48.790;8.990;2023-08-20T13:46:12;5.83;;;4.20;;
68944;SDS011;55984;48.790;8.990;2023-08-20T13:48:40;6.30;;;4.30;;
68944;SDS011;55984;48.790;8.990;2023-08-20T13:51:06;5.67;;;4.33;;
68944;SDS011;55984;48.790;8.990;2023-08-20T13:53:32;7.10;;;4.40;;
68944;SDS011;55984;48.790;8.990;2023-08-20T13:55:58;6.97;;;4.10;;
68944;SDS011;55984;48.790;8.990;2023-08-20T13:58:24;6.20;;;4.37;;
68944;SDS011;55984;48.790;8.990;2023-08-20T14:00:50;5.40;;;3.67;;
68944;SDS011;55984;48.790;8.990;2023-08-20T14:03:16;6.23;;;4.43;;
68944;SDS011;55984;48.790;8.990;2023-08-20T14:05:42;5.40;;;4.03;;
68944;SDS011;55984;48.790;8.990;2023-08-20T14:08:10;5.10;;;3.80;;
68944;SDS011;55984;48.790;8.990;2023-08-20T14:10:36;5.47;;;4.00;;
68944;SDS011;55984;48.790;8.990;2023-08-20T14:13:01;6.80;;;4.43;;
68944;SDS011;55984;48.790;8.990;2023-08-20T14:15:28;6.93;;;4.57;;
68944;SDS011;55984;48.790;8.990;2023-08-20T14:17:54;10.00;;;4.10;;
68944;SDS011;55984;48.790;8.990;2023-08-20T14:20:20;5.73;;;4.00;;
68944;SDS011;55984;48.790;8.990;2023-08-20T14:22:46;7.13;;;4.17;;
68944;SDS011;55984;48.790;8.990;2023-08-20T14:25:11;5.70;;;4.37;;
68944;SDS011;55984;48.790;8.990;2023-08-20T14:27:37;6.93;;;4.30;;
68944;SDS011;55984;48.790;8.990;2023-08-20T14:30:04;6.03;;;3.90;;
68944;SDS011;55984;48.790;8.990;2023-08-20T14:32:31;6.93;;;4.50;;
68944;SDS011;55984;48.790;8.990;2023-08-20T14:34:57;6.67;;;4.40;;
68944;SDS011;55984;48.790;8.990;2023-08-20T14:37:23;6.33;;;4.20;;
68944;SDS011;55984;48.790;8.990;2023-08-20T14:39:49;9.53;;;4.60;;
68944;SDS011;55984;48.790;8.990;2023-08-20T14:42:15;5.80;;;4.37;;
68944;SDS011;55984;48.790;8.990;2023-08-20T14:44:41;6.10;;;4.30;;
68944;SDS011;55984;48.790;8.990;2023-08-20T14:47:07;8.40;;;6.10;;
68944;SDS011;55984;48.790;8.990;2023-08-20T14:49:33;7.10;;;4.50;;
68944;SDS011;55984;48.790;8.990;2023-08-20T14:51:59;6.43;;;4.50;;
68944;SDS011;55984;48.790;8.990;2023-08-20T14:54:25;7.50;;;4.70;;
68944;SDS011;55984;48.790;8.990;2023-08-20T14:56:51;6.90;;;4.30;;
68944;SDS011;55984;48.790;8.990;2023-08-20T14:59:16;5.47;;;4.13;;
68944;SDS011;55984;48.790;8.990;2023-08-20T15:01:42;6.03;;;3.90;;
68944;SDS011;55984;48.790;8.990;2023-08-20T15:04:08;8.73;;;4.67;;
68944;SDS011;55984;48.790;8.990;2023-08-20T15:06:34;5.90;;;4.03;;
68944;SDS011;55984;48.790;8.990;2023-08-20T15:09:00;6.60;;;4.30;;
68944;SDS011;55984;48.790;8.990;2023-08-20T15:11:26;7.30;;;4.20;;
68944;SDS011;55984;48.790;8.990;2023-08-20T15:13:52;6.03;;;4.23;;
68944;SDS011;55984;48.790;8.990;2023-08-20T15:16:18;6.57;;;4.30;;